Terminal Aerodrome Forecast
Issued by NWS Detroit/Pontiac, MI

Home | Current Version | Previous Version | Text Only | Print | Product List | Glossary On
Versions: 1 2 3 4 5 6 7 8 9 10 11 12 13 14 15 16 17 18 19 20 21 22 23 24 25 26 27 28
372
FTUS43 KDTX 241431 AAA
TAFFNT
TAF AMD
KFNT 241431Z 2415/2512 30007KT 2SM -SHRA BR OVC003
     FM241600 30008KT 4SM -SHRA BR OVC004
     FM241800 30008KT 6SM BR OVC006
     FM241900 30009KT P6SM OVC015
     FM250200 27005KT 3SM BR OVC008
     FM251000 VRB03KT 1SM BR OVC004=

USA.gov is the U.S. government's official web portal to all federal, state and local government web resources and services.